Airfield :
LOGIN :

Register | Disclaimer

   EN    FR    IT 

 










Legend :    VFR   Marginal VFR   IFR   Intensive IFR   Very Intensive IFR
Visi :
Ceiling :
>= 8 km
>= 3000ft
5 to 8 km
1000 to 3000 ft
1500m to 5 km
500 to 1000 ft
800 to 1500m
200 to 500 ft
< 800m
< 200 ft
Symbols :   Thunderstorms  Fog  Heavy snow  Heavy precipitations  Wind > 20 kt
SIGMETs :     Misc.  Thunderstorms  Icing  Turbulence  Mountain Waves  Volcanic Ashes







- Airport Elevation : 184 ft
- IATA code : BRU


EBBR - Bruxelles

CURRENT METAR :
  • 240820Z 23011KT 9999 BKN019 17/12 Q1017 NOSIG

EXPIRED METARs :
  • 240750Z 23013KT 9999 BKN018 16/12 Q1016 NOSIG
  • 240720Z 24012KT 200V260 9999 BKN019 17/12 Q1016 NOSIG
  • 240650Z 24012KT 9999 BKN018 17/12 Q1016 NOSIG
  • 240620Z 23013KT 200V260 9999 BKN019 16/12 Q1016 NOSIG
  • 240550Z 23013KT 9999 BKN020 16/11 Q1016 NOSIG

TAF TAF EBBR
Valid from the 24 at 06:00 until the 25 at 12:00 UTC


240510Z 2406/2512 24010KT 9999 FEW012 BKN020
PROB40
TEMPO 2419/2506 BKN012
PROB30
TEMPO 2420/2424 4000 RADZ BKN008
PROB30
TEMPO 2500/2505 BKN008
No reported NOTAMs for that airfield.



MET'MAP, your aeronautical weather chart ! - Copyright ORBIFLY December 2007 - Disclaimer

ORBIFLY MET'MAP TEAM :

Programming & Development : Alexandra Zaïnal
Concept & Development : Baudouin d'Aumeries
Co-Development & Prog : Marc-Olivier Méhu
Technical & hardware support : Manuel Goepfert

Contact : metmap@orbifly.com




SOURCES & CREDITS :

   NOAA